Página principal
METAR-TAF:

METAR-TAF

Aeroportos :

Aeroporto Internacional Pierre Elliott Trudeau

Montreal Trudeau, Quebec, Canadá

latitude: 45-28N, longitude: 073-45W, altura: 31 m

Observação actual do tempo

O boletim foi feito há 58 minutos, às 18:00 UTC
Vento 7 kt de este, variando entre nor-noroeste e sudeste
Temperatura 27°C
Humidade 42%
Pressão 1018 hPa
Visibilidade: 24.1 km
Nuvens fragmentadasa uma altura de 6500 ft

METAR: CYUL 191800Z 08007KT 330V130 15SM BKN065 27/13 A3005 RMK CU6 SLP177 DENSITY ALT 1400FT

Hora: 14:58 (18:58 UTC)

Previsão

O boletim foi feito há 1 hora e 16 minutos, às 17:42 UTC
Previsão válida de 19 às 18 UTC a 20 às 18 UTC
Vento 8 kt de nordeste
Visibilidade: 10 km
Poucas nuvensa uma altura de 24000 ft
Tornando-se
de 20 às 04 UTC a 20 às 06 UTC
Vento 3 kt com direcção variável
Tornando-se
de 20 às 14 UTC a 20 às 16 UTC
Vento 7 kt de sudoeste

TAF: CYUL 191742Z 1918/2018 05008KT P6SM FEW240 BECMG 2004/2006 VRB03KT BECMG 2014/2016 23007KT RMK NXT FCST BY 192100Z

Observações e previsões do tempo de mais de 4000 aeroportos (mensagens METAR e TAF).

As estações disponíveis são os pontos amarelos e vermelhos sobre o mapa.

Mova o rato sobre o mapa para ver o nome da estação.

Depois clique no ponto para visualizar as observações e previsões meteorológicas.

Para alterar o mapa : clique nos botões verdes com uma cruz preta para aumentar o zoom; no botão verde com uma pitada de zoom; ou nas setas verdes para mapas adjacentes.


METAR-TAF: